sensor_id;sensor_type;location;lat;lon;timestamp;P1;durP1;ratioP1;P2;durP2;ratioP2
3979;SDS011;2004;52.452;13.120;2022-10-22T00:05:17;16.77;;;13.17;;
3979;SDS011;2004;52.452;13.120;2022-10-22T00:13:08;18.90;;;12.03;;
3979;SDS011;2004;52.452;13.120;2022-10-22T00:20:59;20.40;;;13.37;;
3979;SDS011;2004;52.452;13.120;2022-10-22T00:28:50;17.03;;;12.30;;
3979;SDS011;2004;52.452;13.120;2022-10-22T00:36:40;13.60;;;11.80;;
3979;SDS011;2004;52.452;13.120;2022-10-22T00:52:49;16.30;;;11.47;;
3979;SDS011;2004;52.452;13.120;2022-10-22T01:00:40;12.97;;;11.60;;
3979;SDS011;2004;52.452;13.120;2022-10-22T01:08:40;18.63;;;12.17;;
3979;SDS011;2004;52.452;13.120;2022-10-22T01:16:47;19.73;;;11.77;;
3979;SDS011;2004;52.452;13.120;2022-10-22T01:25:04;19.00;;;13.03;;
3979;SDS011;2004;52.452;13.120;2022-10-22T01:33:02;18.43;;;12.80;;
3979;SDS011;2004;52.452;13.120;2022-10-22T01:40:55;15.67;;;10.47;;
3979;SDS011;2004;52.452;13.120;2022-10-22T01:49:00;16.80;;;10.63;;
3979;SDS011;2004;52.452;13.120;2022-10-22T02:13:25;13.23;;;9.70;;
3979;SDS011;2004;52.452;13.120;2022-10-22T02:21:18;13.80;;;10.73;;
3979;SDS011;2004;52.452;13.120;2022-10-22T02:37:26;16.00;;;9.57;;
3979;SDS011;2004;52.452;13.120;2022-10-22T02:45:18;13.37;;;10.60;;
3979;SDS011;2004;52.452;13.120;2022-10-22T02:53:09;14.17;;;11.03;;
3979;SDS011;2004;52.452;13.120;2022-10-22T03:01:00;18.97;;;12.23;;
3979;SDS011;2004;52.452;13.120;2022-10-22T03:08:50;19.07;;;12.10;;
3979;SDS011;2004;52.452;13.120;2022-10-22T03:16:41;14.33;;;10.70;;
3979;SDS011;2004;52.452;13.120;2022-10-22T03:24:35;12.57;;;10.07;;
3979;SDS011;2004;52.452;13.120;2022-10-22T03:32:31;13.97;;;9.87;;
3979;SDS011;2004;52.452;13.120;2022-10-22T03:40:22;13.60;;;8.87;;
3979;SDS011;2004;52.452;13.120;2022-10-22T03:48:12;15.93;;;9.87;;
3979;SDS011;2004;52.452;13.120;2022-10-22T03:56:06;11.50;;;8.93;;
3979;SDS011;2004;52.452;13.120;2022-10-22T04:03:59;15.10;;;9.83;;
3979;SDS011;2004;52.452;13.120;2022-10-22T04:11:49;15.20;;;10.73;;
3979;SDS011;2004;52.452;13.120;2022-10-22T04:19:40;15.37;;;10.17;;
3979;SDS011;2004;52.452;13.120;2022-10-22T04:27:31;14.43;;;11.30;;
3979;SDS011;2004;52.452;13.120;2022-10-22T04:35:22;16.97;;;12.00;;
3979;SDS011;2004;52.452;13.120;2022-10-22T04:43:13;16.33;;;11.37;;
3979;SDS011;2004;52.452;13.120;2022-10-22T04:51:04;16.63;;;10.10;;
3979;SDS011;2004;52.452;13.120;2022-10-22T04:58:59;15.50;;;10.33;;
3979;SDS011;2004;52.452;13.120;2022-10-22T05:06:54;14.00;;;10.53;;
3979;SDS011;2004;52.452;13.120;2022-10-22T05:14:45;16.17;;;10.63;;
3979;SDS011;2004;52.452;13.120;2022-10-22T05:22:35;15.60;;;11.10;;
3979;SDS011;2004;52.452;13.120;2022-10-22T05:30:26;13.67;;;10.07;;
3979;SDS011;2004;52.452;13.120;2022-10-22T05:38:16;16.10;;;11.37;;
3979;SDS011;2004;52.452;13.120;2022-10-22T05:46:12;14.80;;;11.00;;
3979;SDS011;2004;52.452;13.120;2022-10-22T05:54:10;14.63;;;10.83;;
3979;SDS011;2004;52.452;13.120;2022-10-22T06:02:08;15.03;;;10.97;;
3979;SDS011;2004;52.452;13.120;2022-10-22T06:09:59;15.83;;;11.70;;
3979;SDS011;2004;52.452;13.120;2022-10-22T06:17:49;15.13;;;11.23;;
3979;SDS011;2004;52.452;13.120;2022-10-22T06:25:40;16.97;;;11.40;;
3979;SDS011;2004;52.452;13.120;2022-10-22T06:33:32;17.20;;;11.27;;
3979;SDS011;2004;52.452;13.120;2022-10-22T06:41:31;15.50;;;11.10;;
3979;SDS011;2004;52.452;13.120;2022-10-22T06:49:21;22.70;;;16.30;;
3979;SDS011;2004;52.452;13.120;2022-10-22T06:57:12;18.50;;;13.47;;
3979;SDS011;2004;52.452;13.120;2022-10-22T07:05:02;19.90;;;13.93;;
3979;SDS011;2004;52.452;13.120;2022-10-22T07:12:53;20.90;;;14.53;;
3979;SDS011;2004;52.452;13.120;2022-10-22T07:20:43;16.60;;;11.80;;
3979;SDS011;2004;52.452;13.120;2022-10-22T07:28:35;18.60;;;14.03;;
3979;SDS011;2004;52.452;13.120;2022-10-22T07:36:28;20.57;;;14.00;;
3979;SDS011;2004;52.452;13.120;2022-10-22T07:44:19;18.70;;;12.83;;
3979;SDS011;2004;52.452;13.120;2022-10-22T07:52:09;12.90;;;9.77;;
3979;SDS011;2004;52.452;13.120;2022-10-22T08:00:00;20.47;;;13.87;;
3979;SDS011;2004;52.452;13.120;2022-10-22T08:07:50;19.43;;;14.67;;
3979;SDS011;2004;52.452;13.120;2022-10-22T08:15:41;22.50;;;14.70;;
3979;SDS011;2004;52.452;13.120;2022-10-22T08:23:32;20.23;;;14.80;;
3979;SDS011;2004;52.452;13.120;2022-10-22T08:31:23;17.50;;;12.07;;
3979;SDS011;2004;52.452;13.120;2022-10-22T08:39:13;18.67;;;12.27;;
3979;SDS011;2004;52.452;13.120;2022-10-22T08:55:22;17.23;;;11.50;;
3979;SDS011;2004;52.452;13.120;2022-10-22T09:03:35;19.47;;;13.77;;
3979;SDS011;2004;52.452;13.120;2022-10-22T09:11:46;16.20;;;12.07;;
3979;SDS011;2004;52.452;13.120;2022-10-22T09:19:46;23.27;;;15.57;;
3979;SDS011;2004;52.452;13.120;2022-10-22T09:28:09;22.07;;;16.53;;
3979;SDS011;2004;52.452;13.120;2022-10-22T09:36:00;19.67;;;14.37;;
3979;SDS011;2004;52.452;13.120;2022-10-22T09:43:55;22.90;;;14.83;;
3979;SDS011;2004;52.452;13.120;2022-10-22T09:59:43;17.07;;;12.57;;
3979;SDS011;2004;52.452;13.120;2022-10-22T10:07:36;24.00;;;10.50;;
3979;SDS011;2004;52.452;13.120;2022-10-22T10:15:32;19.33;;;12.87;;
3979;SDS011;2004;52.452;13.120;2022-10-22T10:31:56;14.23;;;12.07;;
3979;SDS011;2004;52.452;13.120;2022-10-22T10:40:13;15.60;;;10.33;;
3979;SDS011;2004;52.452;13.120;2022-10-22T10:48:48;16.97;;;12.40;;
3979;SDS011;2004;52.452;13.120;2022-10-22T10:56:53;14.90;;;10.73;;
3979;SDS011;2004;52.452;13.120;2022-10-22T11:04:57;21.87;;;11.30;;
3979;SDS011;2004;52.452;13.120;2022-10-22T11:12:53;16.13;;;9.30;;
3979;SDS011;2004;52.452;13.120;2022-10-22T11:21:07;12.50;;;8.73;;
3979;SDS011;2004;52.452;13.120;2022-10-22T11:29:00;21.80;;;8.47;;
3979;SDS011;2004;52.452;13.120;2022-10-22T11:36:53;13.80;;;8.57;;
3979;SDS011;2004;52.452;13.120;2022-10-22T11:44:46;17.20;;;7.83;;
3979;SDS011;2004;52.452;13.120;2022-10-22T12:03:17;16.70;;;7.00;;
3979;SDS011;2004;52.452;13.120;2022-10-22T12:26:59;10.43;;;6.70;;
3979;SDS011;2004;52.452;13.120;2022-10-22T12:34:50;8.00;;;4.20;;
3979;SDS011;2004;52.452;13.120;2022-10-22T12:42:51;10.63;;;4.97;;
3979;SDS011;2004;52.452;13.120;2022-10-22T12:50:47;9.70;;;4.03;;
3979;SDS011;2004;52.452;13.120;2022-10-22T13:06:47;12.70;;;3.50;;
3979;SDS011;2004;52.452;13.120;2022-10-22T13:14:39;10.10;;;4.30;;
3979;SDS011;2004;52.452;13.120;2022-10-22T13:22:35;14.87;;;3.40;;
3979;SDS011;2004;52.452;13.120;2022-10-22T13:30:31;7.53;;;3.30;;
3979;SDS011;2004;52.452;13.120;2022-10-22T13:38:24;11.40;;;3.00;;
3979;SDS011;2004;52.452;13.120;2022-10-22T13:46:16;8.10;;;2.80;;
3979;SDS011;2004;52.452;13.120;2022-10-22T13:54:15;8.90;;;2.90;;
3979;SDS011;2004;52.452;13.120;2022-10-22T14:02:09;12.43;;;2.97;;
3979;SDS011;2004;52.452;13.120;2022-10-22T14:10:01;4.53;;;2.67;;
3979;SDS011;2004;52.452;13.120;2022-10-22T14:17:56;73.87;;;8.60;;
3979;SDS011;2004;52.452;13.120;2022-10-22T14:25:48;35.80;;;7.53;;
3979;SDS011;2004;52.452;13.120;2022-10-22T14:33:40;11.87;;;2.90;;
3979;SDS011;2004;52.452;13.120;2022-10-22T14:41:30;7.00;;;2.70;;
3979;SDS011;2004;52.452;13.120;2022-10-22T14:49:21;18.37;;;3.17;;
3979;SDS011;2004;52.452;13.120;2022-10-22T14:57:11;9.97;;;4.30;;
3979;SDS011;2004;52.452;13.120;2022-10-22T15:05:03;7.63;;;2.33;;
3979;SDS011;2004;52.452;13.120;2022-10-22T15:12:54;6.80;;;2.27;;
3979;SDS011;2004;52.452;13.120;2022-10-22T15:20:45;3.83;;;1.90;;
3979;SDS011;2004;52.452;13.120;2022-10-22T15:28:44;5.10;;;2.40;;
3979;SDS011;2004;52.452;13.120;2022-10-22T15:36:34;7.47;;;2.40;;
3979;SDS011;2004;52.452;13.120;2022-10-22T15:44:26;2.33;;;1.67;;
3979;SDS011;2004;52.452;13.120;2022-10-22T15:52:18;5.20;;;2.53;;
3979;SDS011;2004;52.452;13.120;2022-10-22T16:00:10;3.23;;;2.10;;
3979;SDS011;2004;52.452;13.120;2022-10-22T16:08:01;6.63;;;2.43;;
3979;SDS011;2004;52.452;13.120;2022-10-22T16:15:52;5.93;;;2.50;;
3979;SDS011;2004;52.452;13.120;2022-10-22T16:23:43;5.53;;;2.83;;
3979;SDS011;2004;52.452;13.120;2022-10-22T16:31:34;3.70;;;2.80;;
3979;SDS011;2004;52.452;13.120;2022-10-22T16:39:24;5.80;;;3.53;;
3979;SDS011;2004;52.452;13.120;2022-10-22T16:47:15;10.50;;;3.47;;
3979;SDS011;2004;52.452;13.120;2022-10-22T16:55:06;10.07;;;5.50;;
3979;SDS011;2004;52.452;13.120;2022-10-22T17:02:56;6.23;;;4.33;;
3979;SDS011;2004;52.452;13.120;2022-10-22T17:10:47;7.60;;;4.20;;
3979;SDS011;2004;52.452;13.120;2022-10-22T17:18:38;5.93;;;3.77;;
3979;SDS011;2004;52.452;13.120;2022-10-22T17:26:29;8.73;;;3.40;;
3979;SDS011;2004;52.452;13.120;2022-10-22T17:34:22;7.17;;;4.00;;
3979;SDS011;2004;52.452;13.120;2022-10-22T17:42:12;6.67;;;3.67;;
3979;SDS011;2004;52.452;13.120;2022-10-22T17:50:03;9.67;;;4.00;;
3979;SDS011;2004;52.452;13.120;2022-10-22T17:57:54;9.30;;;3.80;;
3979;SDS011;2004;52.452;13.120;2022-10-22T18:05:44;10.80;;;3.37;;
3979;SDS011;2004;52.452;13.120;2022-10-22T18:13:35;6.50;;;3.43;;
3979;SDS011;2004;52.452;13.120;2022-10-22T18:21:27;7.73;;;3.50;;
3979;SDS011;2004;52.452;13.120;2022-10-22T18:29:19;5.90;;;3.37;;
3979;SDS011;2004;52.452;13.120;2022-10-22T18:37:10;7.07;;;2.80;;
3979;SDS011;2004;52.452;13.120;2022-10-22T18:45:01;5.83;;;3.37;;
3979;SDS011;2004;52.452;13.120;2022-10-22T18:52:52;4.37;;;3.03;;
3979;SDS011;2004;52.452;13.120;2022-10-22T19:00:43;4.17;;;2.70;;
3979;SDS011;2004;52.452;13.120;2022-10-22T19:08:34;5.20;;;3.37;;
3979;SDS011;2004;52.452;13.120;2022-10-22T19:16:26;4.60;;;3.00;;
3979;SDS011;2004;52.452;13.120;2022-10-22T19:24:18;4.40;;;3.70;;
3979;SDS011;2004;52.452;13.120;2022-10-22T19:32:09;6.00;;;3.20;;
3979;SDS011;2004;52.452;13.120;2022-10-22T19:40:01;7.03;;;3.30;;
3979;SDS011;2004;52.452;13.120;2022-10-22T19:47:52;7.50;;;3.47;;
3979;SDS011;2004;52.452;13.120;2022-10-22T19:55:43;7.23;;;3.73;;
3979;SDS011;2004;52.452;13.120;2022-10-22T20:03:34;3.53;;;3.23;;
3979;SDS011;2004;52.452;13.120;2022-10-22T20:11:26;5.47;;;3.80;;
3979;SDS011;2004;52.452;13.120;2022-10-22T20:19:18;11.93;;;4.23;;
3979;SDS011;2004;52.452;13.120;2022-10-22T20:27:09;7.03;;;3.90;;
3979;SDS011;2004;52.452;13.120;2022-10-22T20:34:59;6.27;;;4.30;;
3979;SDS011;2004;52.452;13.120;2022-10-22T20:42:50;7.10;;;4.73;;
3979;SDS011;2004;52.452;13.120;2022-10-22T20:50:41;7.00;;;4.20;;
3979;SDS011;2004;52.452;13.120;2022-10-22T20:58:32;5.93;;;3.90;;
3979;SDS011;2004;52.452;13.120;2022-10-22T21:06:23;9.27;;;3.77;;
3979;SDS011;2004;52.452;13.120;2022-10-22T21:14:14;7.60;;;4.13;;
3979;SDS011;2004;52.452;13.120;2022-10-22T21:22:06;9.20;;;3.63;;
3979;SDS011;2004;52.452;13.120;2022-10-22T21:29:57;19.17;;;4.10;;
3979;SDS011;2004;52.452;13.120;2022-10-22T21:37:47;6.53;;;3.60;;
3979;SDS011;2004;52.452;13.120;2022-10-22T21:45:38;7.53;;;3.63;;
3979;SDS011;2004;52.452;13.120;2022-10-22T21:53:28;6.63;;;3.90;;
3979;SDS011;2004;52.452;13.120;2022-10-22T22:01:19;8.33;;;3.87;;
3979;SDS011;2004;52.452;13.120;2022-10-22T22:09:10;7.93;;;4.10;;
3979;SDS011;2004;52.452;13.120;2022-10-22T22:17:00;11.23;;;4.27;;
3979;SDS011;2004;52.452;13.120;2022-10-22T22:24:51;8.03;;;3.70;;
3979;SDS011;2004;52.452;13.120;2022-10-22T22:32:41;6.30;;;3.70;;
3979;SDS011;2004;52.452;13.120;2022-10-22T22:40:32;4.87;;;3.77;;
3979;SDS011;2004;52.452;13.120;2022-10-22T22:48:22;4.20;;;3.50;;
3979;SDS011;2004;52.452;13.120;2022-10-22T22:56:20;8.93;;;3.77;;
3979;SDS011;2004;52.452;13.120;2022-10-22T23:04:16;6.37;;;3.80;;
3979;SDS011;2004;52.452;13.120;2022-10-22T23:12:11;7.20;;;3.73;;
3979;SDS011;2004;52.452;13.120;2022-10-22T23:20:02;10.97;;;4.37;;
3979;SDS011;2004;52.452;13.120;2022-10-22T23:27:53;4.50;;;3.63;;
3979;SDS011;2004;52.452;13.120;2022-10-22T23:35:44;6.77;;;5.07;;
3979;SDS011;2004;52.452;13.120;2022-10-22T23:43:34;7.97;;;4.87;;
3979;SDS011;2004;52.452;13.120;2022-10-22T23:51:26;9.67;;;4.97;;
3979;SDS011;2004;52.452;13.120;2022-10-22T23:59:17;15.53;;;5.57;;
